Time;durP1;ratioP1;P1;durP2;ratioP2;P2;SDS_P1;SDS_P2;PMS_P1;PMS_P2;Temp;Humidity;BMP_temperature;BMP_pressure;BME280_temperature;BME280_humidity;BME280_pressure;Samples;Min_cycle;Max_cycle;Signal;HPM_P1;HPM_P2
2022/06/24 00:01:17;;;;;;;14.07;2.38;;;;;;;26.52;41.00;100418.69;2109082;28;20511;-77
2022/06/24 00:02:40;;;;;;;13.00;2.50;;;;;;;26.50;41.07;100420.63;2090898;28;20080;-77
2022/06/24 00:04:02;;;;;;;15.40;2.60;;;;;;;26.46;40.92;100413.59;2099976;28;20055;-77
2022/06/24 00:05:28;;;;;;;14.15;2.72;;;;;;;26.46;40.83;100419.03;2117690;27;20057;-77
2022/06/24 00:06:51;;;;;;;18.42;3.03;;;;;;;26.47;40.87;100420.78;2111576;28;20437;-76
2022/06/24 00:08:12;;;;;;;11.82;2.58;;;;;;;26.38;40.92;100411.34;2109771;28;20534;-77
2022/06/24 00:09:36;;;;;;;16.77;2.83;;;;;;;26.23;41.62;100412.16;2107121;28;20495;-77
2022/06/24 00:11:12;;;;;;;14.13;2.50;;;;;;;26.11;41.65;100408.28;2102139;28;20401;-77
2022/06/24 00:12:36;;;;;;;10.02;2.55;;;;;;;26.11;41.73;100410.13;2104373;28;20035;-77
2022/06/24 00:14:05;;;;;;;11.80;2.60;;;;;;;26.15;41.60;100407.16;2106107;28;20082;-77
2022/06/24 00:15:29;;;;;;;15.52;3.20;;;;;;;26.19;41.44;100394.31;2108787;28;20097;-77
2022/06/24 00:16:58;;;;;;;14.07;3.60;;;;;;;26.23;41.33;100395.03;2108949;28;20055;-77
2022/06/24 00:18:21;;;;;;;15.85;2.92;;;;;;;26.23;41.33;100390.50;2101575;28;20541;-77
2022/06/24 00:19:54;;;;;;;12.98;2.65;;;;;;;26.25;41.20;100394.03;2103413;28;20705;-77
2022/06/24 00:21:16;;;;;;;25.13;4.13;;;;;;;26.24;41.37;100394.06;2102209;28;20052;-77
2022/06/24 00:22:44;;;;;;;22.30;3.47;;;;;;;26.22;41.37;100390.56;2118913;28;20074;-77
2022/06/24 00:24:06;;;;;;;17.95;3.00;;;;;;;26.20;41.25;100393.34;2107899;28;20487;-77
2022/06/24 00:25:37;;;;;;;;;;;;;;;26.14;41.13;100391.88;2109823;28;20048;-77
2022/06/24 00:26:59;;;;;;;10.05;2.47;;;;;;;26.13;41.26;100391.94;2110930;28;20391;-77
2022/06/24 00:28:26;;;;;;;12.13;2.72;;;;;;;26.11;41.08;100386.63;2110413;28;20059;-77
2022/06/24 00:29:48;;;;;;;15.15;2.72;;;;;;;26.07;40.98;100390.44;2107839;28;20044;-77
2022/06/24 00:31:11;;;;;;;15.30;2.60;;;;;;;26.06;40.92;100377.00;2117108;28;20333;-77
2022/06/24 00:32:34;;;;;;;13.57;3.88;;;;;;;26.05;40.86;100386.97;2100963;28;20500;-77
2022/06/24 00:33:56;;;;;;;11.73;2.47;;;;;;;26.04;40.97;100390.63;2118293;28;20039;-77
2022/06/24 00:35:19;;;;;;;19.60;2.95;;;;;;;26.00;41.14;100388.16;2115190;28;20097;-76
2022/06/24 00:36:41;;;;;;;16.13;2.65;;;;;;;25.94;40.90;100383.06;2113257;28;20531;-77
2022/06/24 00:38:22;;;;;;;15.82;4.00;;;;;;;25.95;41.04;100387.53;2109073;28;20032;-77
2022/06/24 00:39:43;;;;;;;16.65;2.63;;;;;;;25.95;40.92;100390.25;2112045;28;20039;-77
2022/06/24 00:41:09;;;;;;;11.13;2.80;;;;;;;25.99;40.62;100387.28;2109020;28;20031;-76
2022/06/24 00:42:33;;;;;;;14.30;3.35;;;;;;;26.04;40.30;100389.75;2102050;28;20100;-77
2022/06/24 00:44:00;;;;;;;29.75;5.03;;;;;;;26.08;40.63;100386.78;2100551;28;20479;-76
2022/06/24 00:45:29;;;;;;;13.27;3.00;;;;;;;26.09;41.15;100393.94;2107392;28;20088;-77
2022/06/24 00:46:53;;;;;;;16.67;3.88;;;;;;;26.11;40.88;100396.59;2101674;28;20052;-77
2022/06/24 00:48:17;;;;;;;12.80;4.22;;;;;;;26.12;40.98;100399.19;2101178;28;20518;-77
2022/06/24 00:49:39;;;;;;;10.90;2.75;;;;;;;26.05;41.26;100400.50;2100923;28;20048;-77
2022/06/24 00:51:03;;;;;;;12.88;2.58;;;;;;;25.97;41.98;100400.03;2101892;28;20569;-77
2022/06/24 00:52:26;;;;;;;11.38;2.50;;;;;;;25.91;42.16;100399.47;2116784;28;20073;-76
2022/06/24 00:53:51;;;;;;;12.80;2.95;;;;;;;25.85;42.75;100399.81;2096136;28;20586;-77
2022/06/24 00:55:18;;;;;;;12.63;2.40;;;;;;;25.83;42.67;100397.19;2105190;28;20092;-77
2022/06/24 00:56:45;;;;;;;11.48;3.08;;;;;;;25.82;42.87;100398.13;2110720;28;20476;-77
2022/06/24 00:58:14;;;;;;;9.05;2.95;;;;;;;25.78;43.23;100405.56;2103377;28;20039;-77
2022/06/24 00:59:36;;;;;;;10.27;2.42;;;;;;;25.72;43.59;100405.00;2098467;28;20497;-77
2022/06/24 01:00:59;;;;;;;11.90;3.33;;;;;;;25.67;43.75;100407.03;2099134;28;20368;-77
2022/06/24 01:02:21;;;;;;;13.85;3.53;;;;;;;25.63;43.78;100398.22;2104859;28;20058;-77
2022/06/24 01:03:44;;;;;;;10.75;2.78;;;;;;;25.61;43.54;100407.38;2101141;28;20032;-77
2022/06/24 01:05:06;;;;;;;16.20;2.85;;;;;;;25.52;43.83;100408.72;2106635;28;20047;-77
2022/06/24 01:06:29;;;;;;;;;;;;;;;25.42;44.16;100408.28;2104393;28;20052;-77
2022/06/24 01:07:52;;;;;;;12.60;2.95;;;;;;;25.36;44.19;100413.13;2106289;28;19920;-77
2022/06/24 01:09:19;;;;;;;15.18;3.58;;;;;;;25.33;44.11;100418.72;2106853;28;20047;-77
2022/06/24 01:10:48;;;;;;;14.85;3.70;;;;;;;25.31;44.02;100426.91;2112265;28;20071;-77
2022/06/24 01:12:12;;;;;;;17.52;3.42;;;;;;;25.29;44.01;100428.78;2099683;28;20079;-77
2022/06/24 01:13:35;;;;;;;12.80;3.35;;;;;;;25.23;43.89;100426.41;2104262;28;20052;-77
2022/06/24 01:14:56;;;;;;;19.17;4.05;;;;;;;25.18;44.11;100423.06;2109763;28;20148;-77
2022/06/24 01:16:21;;;;;;;15.52;3.65;;;;;;;25.19;44.07;100424.81;2106522;28;20070;-77
2022/06/24 01:17:44;;;;;;;9.38;2.55;;;;;;;25.21;44.01;100431.00;2097590;28;20040;-77
2022/06/24 01:19:08;;;;;;;16.80;2.63;;;;;;;25.18;44.00;100436.56;2103557;28;20079;-77
2022/06/24 01:20:31;;;;;;;19.23;3.15;;;;;;;25.13;44.46;100438.63;2108778;28;20047;-77
2022/06/24 01:21:53;;;;;;;14.43;2.75;;;;;;;25.12;44.65;100439.59;2102990;28;20177;-77
2022/06/24 01:23:24;;;;;;;10.75;2.95;;;;;;;25.16;44.29;100443.88;2103785;28;20101;-76
2022/06/24 01:24:47;;;;;;;13.73;2.70;;;;;;;25.17;44.22;100440.22;2096514;28;20556;-77
2022/06/24 01:26:09;;;;;;;13.00;2.38;;;;;;;25.17;44.51;100439.34;2111642;28;20556;-77
2022/06/24 01:27:31;;;;;;;18.73;3.00;;;;;;;25.16;44.03;100441.16;2100417;28;20531;-77
2022/06/24 01:28:53;;;;;;;10.90;3.85;;;;;;;25.15;44.06;100439.41;2113372;27;20541;-77
2022/06/24 01:30:15;;;;;;;14.75;2.85;;;;;;;25.12;44.28;100452.22;2106936;28;20419;-77
2022/06/24 01:31:40;;;;;;;13.25;2.53;;;;;;;25.02;44.27;100440.97;2102448;28;20740;-77
2022/06/24 01:33:03;;;;;;;14.30;2.95;;;;;;;24.92;44.29;100447.78;2119735;27;20070;-77
2022/06/24 01:34:26;;;;;;;16.27;3.25;;;;;;;24.90;44.54;100449.66;2117755;27;20045;-77
2022/06/24 01:35:48;;;;;;;15.90;2.80;;;;;;;24.92;44.75;100439.69;2113842;28;20051;-77
2022/06/24 01:37:11;;;;;;;11.38;2.40;;;;;;;24.93;44.99;100450.41;2111348;28;20061;-77
2022/06/24 01:38:34;;;;;;;13.60;2.63;;;;;;;24.94;45.09;100445.91;2099776;28;20052;-77
2022/06/24 01:39:55;;;;;;;8.90;2.40;;;;;;;24.93;44.98;100436.03;2105632;28;20539;-77
2022/06/24 01:41:18;;;;;;;7.78;2.50;;;;;;;24.93;44.96;100445.00;2102501;28;20048;-77
2022/06/24 01:42:41;;;;;;;14.43;4.15;;;;;;;24.94;45.01;100443.19;2110135;28;20093;-77
2022/06/24 01:44:02;;;;;;;16.17;3.40;;;;;;;24.93;45.09;100449.53;2111007;28;20039;-76
2022/06/24 01:45:25;;;;;;;12.13;3.65;;;;;;;24.86;45.27;100446.22;2110061;28;20052;-77
2022/06/24 01:46:47;;;;;;;17.05;3.22;;;;;;;24.85;45.62;100440.88;2104238;28;20531;-77
2022/06/24 01:48:09;;;;;;;11.75;2.28;;;;;;;24.77;45.45;100441.25;2094843;28;20139;-76
2022/06/24 01:49:31;;;;;;;15.65;2.72;;;;;;;24.61;45.97;100445.66;2101848;28;20071;-76
2022/06/24 01:50:54;;;;;;;9.77;1.88;;;;;;;24.48;46.04;100441.78;2110056;28;20079;-77
2022/06/24 01:52:18;;;;;;;9.70;2.30;;;;;;;24.42;46.11;100444.72;2106142;28;20063;-76
2022/06/24 01:53:39;;;;;;;11.38;2.45;;;;;;;24.39;46.17;100450.28;2106048;28;20044;-76
2022/06/24 01:55:02;;;;;;;13.00;3.03;;;;;;;24.41;46.13;100445.72;2110635;28;20831;-76
2022/06/24 01:56:24;;;;;;;16.23;3.13;;;;;;;24.38;46.28;100449.41;2107022;28;20072;-77
2022/06/24 01:57:47;;;;;;;16.85;3.40;;;;;;;24.38;46.28;100437.75;2119920;27;20043;-77
2022/06/24 01:59:08;;;;;;;19.50;3.85;;;;;;;24.41;46.36;100434.91;2106935;28;20147;-76
2022/06/24 02:00:31;;;;;;;7.50;2.33;;;;;;;24.46;46.85;100432.88;2100556;28;20051;-77
2022/06/24 02:01:53;;;;;;;15.63;3.92;;;;;;;24.50;46.92;100427.25;2118229;27;20035;-77
2022/06/24 02:03:14;;;;;;;11.18;2.88;;;;;;;24.53;47.06;100413.63;2108530;28;20078;-77
2022/06/24 02:04:37;;;;;;;11.27;2.95;;;;;;;24.58;47.24;100422.38;2102048;28;20044;-77
2022/06/24 02:06:09;;;;;;;11.93;3.55;;;;;;;24.64;47.18;100418.50;2106231;28;20655;-77
2022/06/24 02:07:33;;;;;;;15.05;3.40;;;;;;;24.61;47.42;100410.56;2112937;28;20044;-77
2022/06/24 02:08:56;;;;;;;10.80;4.40;;;;;;;24.61;47.66;100408.69;2110813;28;20074;-77
2022/06/24 02:13:37;;;;;;;14.82;4.20;;;;;;;24.68;48.69;100413.84;2111779;28;20047;-77
2022/06/24 02:15:00;;;;;;;12.40;3.72;;;;;;;24.68;48.66;100420.09;2110567;28;20047;-78
2022/06/24 02:16:22;;;;;;;12.00;3.17;;;;;;;24.70;48.89;100428.13;2104672;28;20155;-77
2022/06/24 02:17:44;;;;;;;12.80;3.92;;;;;;;24.69;49.30;100421.84;2111177;28;20043;-77
2022/06/24 02:19:06;;;;;;;9.68;3.42;;;;;;;24.71;49.61;100421.78;2111588;28;20047;-77
2022/06/24 02:20:28;;;;;;;12.70;3.47;;;;;;;24.73;49.46;100420.75;2104965;28;20048;-77
2022/06/24 02:21:51;;;;;;;12.82;3.70;;;;;;;24.76;49.67;100412.50;2118327;27;20031;-77
2022/06/24 02:23:14;;;;;;;11.55;3.75;;;;;;;24.81;49.88;100423.09;2106657;28;20090;-77
2022/06/24 02:24:36;;;;;;;11.35;3.88;;;;;;;24.81;49.77;100423.09;2108859;28;20563;-77
2022/06/24 02:25:59;;;;;;;15.77;4.15;;;;;;;24.80;50.02;100422.22;2108355;28;20047;-78
2022/06/24 02:27:21;;;;;;;16.10;3.70;;;;;;;24.79;50.24;100420.47;2107877;28;20459;-78
2022/06/24 02:28:44;;;;;;;11.60;3.58;;;;;;;24.76;50.14;100415.19;2104453;28;20067;-78
2022/06/24 02:30:07;;;;;;;13.05;4.45;;;;;;;24.73;50.27;100409.97;2100168;28;20067;-77
2022/06/24 02:31:30;;;;;;;13.30;4.55;;;;;;;24.70;50.47;100417.31;2105179;28;20051;-78
2022/06/24 02:32:51;;;;;;;14.07;4.32;;;;;;;24.66;50.62;100416.59;2086201;28;20068;-77
2022/06/24 02:34:14;;;;;;;10.27;5.05;;;;;;;24.63;50.92;100417.63;2107268;28;20048;-77
2022/06/24 02:35:36;;;;;;;12.43;3.92;;;;;;;24.60;50.93;100411.50;2105576;28;20047;-77
2022/06/24 02:36:58;;;;;;;15.07;4.90;;;;;;;24.59;51.42;100412.44;2111137;28;20047;-77
2022/06/24 02:38:21;;;;;;;8.68;4.25;;;;;;;24.62;51.80;100414.97;2111379;28;20074;-78
2022/06/24 02:39:43;;;;;;;11.95;4.28;;;;;;;24.64;52.13;100407.69;2107536;28;20523;-77
2022/06/24 02:41:05;;;;;;;12.13;4.50;;;;;;;24.68;52.62;100411.97;2101538;28;20063;-77
2022/06/24 02:42:27;;;;;;;12.05;4.25;;;;;;;24.71;52.62;100413.66;2086101;28;20132;-77
2022/06/24 02:43:49;;;;;;;13.25;4.43;;;;;;;24.75;52.96;100412.56;2098752;28;20089;-77
2022/06/24 02:45:11;;;;;;;15.63;4.97;;;;;;;24.75;53.10;100420.66;2102737;28;20562;-78
2022/06/24 02:46:34;;;;;;;15.60;4.25;;;;;;;24.75;52.97;100415.25;2119394;27;20068;-77
2022/06/24 02:47:55;;;;;;;17.65;5.35;;;;;;;24.72;52.95;100423.53;2107947;28;20052;-77
2022/06/24 02:49:17;;;;;;;17.40;6.72;;;;;;;24.71;53.11;100424.47;2105353;28;20492;-76
2022/06/24 02:50:41;;;;;;;12.25;4.55;;;;;;;24.71;53.08;100432.56;2108491;28;20096;-77
2022/06/24 02:52:03;;;;;;;11.70;4.78;;;;;;;24.70;53.58;100430.81;2102856;28;20051;-77
2022/06/24 02:53:29;;;;;;;12.57;4.60;;;;;;;24.72;53.53;100439.72;2110195;28;20071;-77
2022/06/24 02:54:50;;;;;;;8.43;4.75;;;;;;;24.72;53.83;100439.72;2102915;28;20134;-77
2022/06/24 02:56:14;;;;;;;16.13;4.68;;;;;;;24.72;53.97;100445.13;2104510;28;20060;-76
2022/06/24 02:57:35;;;;;;;10.45;4.68;;;;;;;24.72;53.66;100446.00;2094561;28;20075;-77
2022/06/24 02:58:58;;;;;;;10.98;4.22;;;;;;;24.72;53.59;100442.44;2093921;28;20044;-77
2022/06/24 03:00:19;;;;;;;9.55;4.20;;;;;;;24.71;53.75;100446.06;2102357;28;20147;-77
2022/06/24 03:01:42;;;;;;;9.25;4.10;;;;;;;24.69;53.62;100440.75;2097147;28;20044;-78
2022/06/24 03:03:03;;;;;;;13.65;4.10;;;;;;;24.71;53.50;100441.56;2102376;28;20465;-77
2022/06/24 03:04:26;;;;;;;13.10;4.32;;;;;;;24.73;53.63;100449.59;2097439;28;20798;-77
2022/06/24 03:05:49;;;;;;;13.65;4.75;;;;;;;24.75;53.67;100447.66;2110109;27;20553;-77
2022/06/24 03:07:10;;;;;;;16.42;4.55;;;;;;;24.76;53.37;100446.72;2105284;28;20051;-77
2022/06/24 03:08:34;;;;;;;15.05;4.32;;;;;;;24.78;53.45;100452.94;2107327;28;20052;-77
2022/06/24 03:09:56;;;;;;;12.20;5.03;;;;;;;24.73;53.75;100449.59;2109087;28;20479;-78
2022/06/24 03:11:18;;;;;;;19.02;4.70;;;;;;;24.72;53.94;100445.13;2102531;28;20062;-77
2022/06/24 03:12:39;;;;;;;10.60;4.30;;;;;;;24.71;53.86;100446.06;2100939;28;20062;-77
2022/06/24 03:14:02;;;;;;;14.98;4.30;;;;;;;24.72;53.88;100439.72;2094748;28;20139;-77
2022/06/24 03:15:24;;;;;;;17.35;4.78;;;;;;;24.72;53.90;100439.72;2102537;28;20048;-77
2022/06/24 03:16:46;;;;;;;11.68;4.60;;;;;;;24.71;54.06;100444.25;2117190;27;20560;-77
2022/06/24 03:18:08;;;;;;;12.20;5.05;;;;;;;24.74;54.44;100441.41;2107576;28;20040;-77
2022/06/24 03:19:30;;;;;;;11.55;4.97;;;;;;;24.78;54.63;100443.00;2097629;28;20040;-77
2022/06/24 03:20:53;;;;;;;10.63;4.97;;;;;;;24.83;54.45;100448.19;2094955;28;20053;-78
2022/06/24 03:22:14;;;;;;;8.52;4.40;;;;;;;24.82;54.49;100447.31;2116837;27;20595;-77
2022/06/24 03:23:38;;;;;;;17.55;5.00;;;;;;;24.79;54.72;100447.47;2106612;28;20043;-78
2022/06/24 03:24:59;;;;;;;15.73;4.93;;;;;;;24.66;55.07;100440.03;2110627;28;20043;-77
2022/06/24 03:26:22;;;;;;;15.65;4.47;;;;;;;24.58;55.47;100446.66;2110889;28;20071;-78
2022/06/24 03:27:43;;;;;;;14.10;5.40;;;;;;;24.57;55.50;100439.50;2109904;28;20082;-77
2022/06/24 03:29:05;;;;;;;9.55;4.75;;;;;;;24.63;55.38;100432.94;2102341;28;20048;-77
2022/06/24 03:30:27;;;;;;;14.60;5.18;;;;;;;24.72;55.37;100432.50;2099552;28;20063;-76
2022/06/24 03:31:49;;;;;;;13.60;5.97;;;;;;;24.78;55.48;100423.22;2102505;28;20062;-77
2022/06/24 03:33:12;;;;;;;13.95;5.10;;;;;;;24.87;55.49;100430.91;2096951;28;20064;-77
2022/06/24 03:34:33;;;;;;;12.95;5.13;;;;;;;24.94;55.31;100427.84;2103434;28;20081;-77
2022/06/24 03:35:56;;;;;;;12.02;4.70;;;;;;;24.99;55.23;100419.53;2101146;28;20043;-77
2022/06/24 03:37:18;;;;;;;14.45;5.53;;;;;;;24.96;55.40;100420.53;2110577;28;20054;-77
2022/06/24 03:38:42;;;;;;;15.98;5.57;;;;;;;25.02;55.52;100420.22;2110891;28;20058;-76
2022/06/24 03:40:04;;;;;;;10.95;5.30;;;;;;;25.09;55.41;100415.41;2111136;28;20121;-77
2022/06/24 03:41:27;;;;;;;17.17;5.60;;;;;;;25.16;55.21;100410.56;2105678;28;20055;-77
2022/06/24 03:42:49;;;;;;;15.38;5.88;;;;;;;25.22;55.39;100413.84;2118677;27;20494;-77
2022/06/24 03:44:12;;;;;;;11.65;6.05;;;;;;;25.31;55.24;100409.81;2092278;28;20476;-77
2022/06/24 03:45:34;;;;;;;11.73;5.03;;;;;;;25.39;55.13;100408.47;2108231;28;20104;-77
2022/06/24 03:46:56;;;;;;;10.40;5.32;;;;;;;25.47;54.99;100412.63;2108292;28;20067;-77
2022/06/24 03:48:18;;;;;;;16.92;4.97;;;;;;;25.52;54.91;100405.13;2102142;28;20051;-78
2022/06/24 03:49:40;;;;;;;14.85;5.40;;;;;;;25.55;54.52;100413.06;2098888;28;20036;-77
2022/06/24 03:51:02;;;;;;;;;;;;;;;25.61;54.72;100399.25;2096509;28;20056;-77
2022/06/24 03:52:24;;;;;;;11.55;5.35;;;;;;;25.69;54.56;100400.63;2109725;28;19924;-77
2022/06/24 03:53:48;;;;;;;13.18;5.32;;;;;;;25.78;54.23;100399.28;2102221;28;20048;-77
2022/06/24 03:55:10;;;;;;;14.13;6.10;;;;;;;25.85;54.33;100400.69;2100407;28;20074;-76
2022/06/24 03:56:34;;;;;;;13.25;5.18;;;;;;;25.98;54.05;100404.50;2119043;27;20051;-77
2022/06/24 03:57:56;;;;;;;16.05;5.47;;;;;;;26.08;53.82;100397.59;2099141;28;20061;-77
2022/06/24 03:59:19;;;;;;;11.35;5.07;;;;;;;26.18;53.61;100404.28;2095701;28;20124;-77
2022/06/24 04:00:40;;;;;;;17.60;6.70;;;;;;;26.19;53.44;100400.59;2102784;28;20194;-76
2022/06/24 04:02:03;;;;;;;11.88;5.20;;;;;;;26.23;53.55;100412.16;2102175;28;20105;-77
2022/06/24 04:03:25;;;;;;;11.07;4.53;;;;;;;26.33;53.34;100415.25;2110213;27;20036;-77
2022/06/24 04:04:48;;;;;;;10.07;4.57;;;;;;;26.42;52.97;100417.44;2104836;28;20475;-77
2022/06/24 04:06:10;;;;;;;11.85;4.20;;;;;;;26.51;52.97;100416.94;2103805;28;20064;-77
2022/06/24 04:07:32;;;;;;;12.80;4.95;;;;;;;26.60;52.43;100427.25;2110636;28;20086;-76
2022/06/24 04:08:56;;;;;;;12.32;4.28;;;;;;;26.72;52.24;100426.56;2109551;28;20365;-77
2022/06/24 04:10:18;;;;;;;14.93;4.20;;;;;;;26.88;52.09;100424.75;2107429;28;20046;-77
2022/06/24 04:11:39;;;;;;;10.73;4.50;;;;;;;27.05;51.85;100420.19;2106887;28;20163;-77
2022/06/24 04:13:02;;;;;;;11.10;4.72;;;;;;;27.20;51.65;100427.44;2102642;28;20040;-76
2022/06/24 04:16:00;;;;;;;15.50;4.22;;;;;;;27.51;51.18;100429.22;2112606;28;20070;-77
2022/06/24 04:17:22;;;;;;;13.50;5.03;;;;;;;27.62;51.03;100424.94;2098387;28;20389;-77
2022/06/24 04:18:44;;;;;;;11.10;5.18;;;;;;;27.74;50.77;100423.31;2083892;28;20148;-77
2022/06/24 04:20:07;;;;;;;11.95;4.88;;;;;;;27.86;50.69;100424.41;2093448;28;20048;-76
2022/06/24 04:21:30;;;;;;;12.23;4.75;;;;;;;27.97;50.32;100430.03;2115454;28;20047;-76
2022/06/24 04:22:53;;;;;;;14.32;5.30;;;;;;;28.12;50.06;100429.09;2109687;28;20050;-77
2022/06/24 04:24:15;;;;;;;10.00;4.30;;;;;;;28.29;49.66;100430.81;2110631;28;20527;-77
2022/06/24 04:25:38;;;;;;;12.50;5.32;;;;;;;28.42;49.31;100429.91;2099683;28;20040;-77
2022/06/24 04:27:01;;;;;;;10.98;4.18;;;;;;;28.60;49.02;100435.16;2098186;28;20087;-77
2022/06/24 04:28:23;;;;;;;9.38;4.25;;;;;;;28.79;48.77;100441.19;2110159;28;20131;-77
2022/06/24 04:29:44;;;;;;;12.75;5.03;;;;;;;28.95;48.63;100425.59;2097968;28;20121;-77
2022/06/24 04:31:07;;;;;;;15.20;4.22;;;;;;;29.14;48.37;100425.28;2102625;28;20086;-77
2022/06/24 04:32:28;;;;;;;16.98;5.40;;;;;;;29.28;48.07;100428.78;2099649;28;20532;-77
2022/06/24 04:33:50;;;;;;;14.65;3.95;;;;;;;29.43;47.28;100436.94;2107597;28;20039;-77
2022/06/24 04:35:13;;;;;;;12.85;4.32;;;;;;;29.59;47.12;100432.19;2100887;28;20043;-77
2022/06/24 04:36:34;;;;;;;12.65;4.50;;;;;;;29.80;47.06;100427.13;2102397;28;20067;-77
2022/06/24 04:37:57;;;;;;;8.25;4.05;;;;;;;30.00;46.52;100424.75;2102073;28;20044;-77
2022/06/24 04:39:19;;;;;;;13.45;4.45;;;;;;;30.18;44.96;100422.59;2105296;28;20135;-77
2022/06/24 04:40:42;;;;;;;16.38;4.60;;;;;;;30.33;44.43;100426.94;2109689;28;20075;-77
2022/06/24 04:42:04;;;;;;;14.80;5.00;;;;;;;30.53;44.14;100430.97;2095594;28;20075;-77
2022/06/24 04:43:27;;;;;;;9.75;4.45;;;;;;;30.72;44.59;100428.66;2104128;28;20058;-76
2022/06/24 04:44:48;;;;;;;17.02;4.45;;;;;;;30.92;44.60;100423.59;2111159;28;20151;-77
2022/06/24 04:46:11;;;;;;;14.73;4.40;;;;;;;31.14;44.80;100421.91;2106583;28;20071;-77
2022/06/24 04:47:33;;;;;;;13.68;5.10;;;;;;;31.37;44.50;100428.38;2104665;28;20072;-77
2022/06/24 04:48:56;;;;;;;14.38;4.85;;;;;;;31.56;43.94;100428.69;2112231;28;20487;-77
2022/06/24 04:50:18;;;;;;;11.40;4.68;;;;;;;31.71;44.06;100436.69;2110564;28;20491;-77
2022/06/24 04:51:40;;;;;;;12.30;3.92;;;;;;;31.75;43.82;100433.63;2112173;28;20693;-77
2022/06/24 04:53:03;;;;;;;16.98;4.32;;;;;;;31.88;43.62;100445.34;2112090;28;20509;-77
2022/06/24 04:54:27;;;;;;;11.93;4.60;;;;;;;32.07;42.51;100439.28;2111226;28;20055;-77
2022/06/24 04:55:50;;;;;;;14.98;4.05;;;;;;;32.28;41.61;100442.22;2106129;28;20078;-77
2022/06/24 04:57:13;;;;;;;16.60;4.07;;;;;;;32.50;40.84;100430.41;2109916;28;20075;-77
2022/06/24 04:58:35;;;;;;;12.80;4.05;;;;;;;32.72;40.43;100430.44;2112401;28;20199;-77
2022/06/24 04:59:58;;;;;;;11.82;4.78;;;;;;;32.83;39.92;100433.16;2106956;28;20040;-77
2022/06/24 05:01:20;;;;;;;12.88;4.47;;;;;;;32.94;39.26;100427.69;2106586;28;20498;-77
2022/06/24 05:02:43;;;;;;;14.95;4.25;;;;;;;33.10;39.16;100428.13;2120044;27;20079;-78
2022/06/24 05:04:05;;;;;;;16.92;4.65;;;;;;;33.34;38.87;100436.19;2108941;28;20082;-77
2022/06/24 05:05:27;;;;;;;11.98;4.38;;;;;;;33.59;38.29;100426.75;2109500;28;20068;-77
2022/06/24 05:06:50;;;;;;;19.05;3.88;;;;;;;33.82;37.68;100441.22;2099982;28;20449;-77
2022/06/24 05:08:12;;;;;;;14.52;4.03;;;;;;;34.06;37.19;100438.25;2103704;28;20044;-77
2022/06/24 05:09:36;;;;;;;21.35;3.95;;;;;;;34.29;36.57;100446.19;2117769;27;20067;-77
2022/06/24 05:10:59;;;;;;;24.33;3.85;;;;;;;34.40;36.18;100454.31;2108134;28;20079;-77
2022/06/24 05:12:21;;;;;;;13.05;3.78;;;;;;;34.60;35.46;100462.66;2111968;28;20134;-77
2022/06/24 05:13:44;;;;;;;24.63;3.80;;;;;;;34.78;35.13;100467.41;2094163;28;20158;-77
2022/06/24 05:15:07;;;;;;;20.48;3.80;;;;;;;34.94;34.89;100471.50;2108509;28;20081;-77
2022/06/24 05:16:29;;;;;;;21.08;3.67;;;;;;;35.08;34.60;100476.59;2100845;28;20139;-77
2022/06/24 05:17:51;;;;;;;18.45;3.25;;;;;;;35.20;34.04;100486.44;2110834;27;20043;-77
2022/06/24 05:19:13;;;;;;;15.40;3.90;;;;;;;35.38;33.83;100476.53;2102748;28;20157;-77
2022/06/24 05:20:35;;;;;;;29.05;4.28;;;;;;;35.53;33.29;100488.84;2100618;28;20055;-77
2022/06/24 05:21:58;;;;;;;16.95;3.70;;;;;;;35.64;33.05;100487.00;2104860;28;20046;-77
2022/06/24 05:23:21;;;;;;;23.92;4.53;;;;;;;35.79;32.83;100486.44;2103731;28;20182;-77
2022/06/24 05:24:45;;;;;;;14.73;3.63;;;;;;;35.89;32.72;100494.69;2103319;28;20578;-76
2022/06/24 05:26:07;;;;;;;21.42;4.10;;;;;;;36.07;32.42;100503.94;2115787;27;20088;-77
2022/06/24 05:27:29;;;;;;;20.92;4.57;;;;;;;36.20;32.39;100498.16;2105204;28;20044;-76
2022/06/24 05:28:52;;;;;;;14.52;3.50;;;;;;;36.28;32.05;100496.41;2104821;28;20135;-77
2022/06/24 05:30:15;;;;;;;17.67;3.97;;;;;;;36.38;32.12;100495.50;2103425;28;20089;-77
2022/06/24 05:31:37;;;;;;;21.48;4.63;;;;;;;36.52;32.11;100492.28;2109463;28;20067;-77
2022/06/24 05:32:59;;;;;;;12.85;4.07;;;;;;;36.65;31.91;100488.22;2102529;28;20044;-77
2022/06/24 05:34:21;;;;;;;16.60;3.90;;;;;;;36.68;31.82;100506.34;2118397;27;20090;-76
2022/06/24 05:35:44;;;;;;;17.73;4.43;;;;;;;36.79;31.97;100505.25;2105426;28;20407;-77
2022/06/24 05:37:07;;;;;;;19.67;3.88;;;;;;;36.97;31.86;100498.81;2097751;28;20048;-77
2022/06/24 05:38:29;;;;;;;9.95;2.78;;;;;;;37.11;31.70;100509.34;2094971;28;20048;-76
2022/06/24 05:39:53;;;;;;;16.30;3.10;;;;;;;37.26;31.56;100506.97;2099003;28;20048;-78
2022/06/24 05:41:16;;;;;;;16.70;3.83;;;;;;;37.32;31.51;100510.97;2102321;28;20505;-77
2022/06/24 05:42:38;;;;;;;17.92;3.60;;;;;;;37.31;31.54;100504.59;2116048;27;20077;-76
2022/06/24 05:44:01;;;;;;;23.00;3.55;;;;;;;37.30;31.64;100507.50;2109752;28;20063;-76
2022/06/24 05:45:24;;;;;;;17.42;3.55;;;;;;;37.27;32.17;100511.44;2110982;28;20597;-77
2022/06/24 05:46:46;;;;;;;16.77;4.07;;;;;;;37.17;32.56;100518.00;2105765;28;20812;-77
2022/06/24 05:48:08;;;;;;;21.73;3.97;;;;;;;37.05;33.04;100531.97;2109541;28;20548;-76
2022/06/24 05:49:30;;;;;;;18.23;3.60;;;;;;;36.95;33.38;100539.41;2105561;28;20072;-78
2022/06/24 05:50:53;;;;;;;19.58;4.07;;;;;;;36.93;33.68;100535.94;2111205;28;20055;-77
2022/06/24 05:52:16;;;;;;;18.27;3.58;;;;;;;36.92;34.08;100547.09;2102853;28;20048;-77
2022/06/24 05:55:18;;;;;;;22.77;3.65;;;;;;;37.09;34.00;100552.66;2105560;28;20426;-76
2022/06/24 05:56:41;;;;;;;21.95;4.20;;;;;;;37.04;34.49;100563.25;2103323;28;20048;-76
2022/06/24 05:58:03;;;;;;;16.40;3.97;;;;;;;37.01;34.74;100569.09;2105375;28;20147;-77
2022/06/24 05:59:26;;;;;;;16.27;3.95;;;;;;;37.00;35.01;100572.00;2103125;28;20135;-76
2022/06/24 06:00:48;;;;;;;15.65;4.13;;;;;;;37.02;35.13;100579.06;2097965;28;20052;-77
2022/06/24 06:02:10;;;;;;;15.13;3.47;;;;;;;37.06;35.16;100583.25;2094231;28;20075;-77
2022/06/24 06:03:33;;;;;;;21.42;3.42;;;;;;;37.10;35.26;100589.31;2102597;28;20060;-78
2022/06/24 06:04:55;;;;;;;23.58;5.28;;;;;;;37.23;35.21;100594.53;2113781;28;20048;-77
2022/06/24 06:06:18;;;;;;;20.30;3.95;;;;;;;37.42;35.10;100599.94;2102849;28;20047;-77
2022/06/24 06:07:40;;;;;;;18.83;4.13;;;;;;;37.43;35.48;100596.16;2107419;28;20035;-78
2022/06/24 06:09:03;;;;;;;15.07;3.72;;;;;;;37.42;35.55;100605.44;2119926;27;20051;-79
2022/06/24 06:10:27;;;;;;;20.90;4.03;;;;;;;37.20;36.07;100601.22;2108771;28;20035;-79
2022/06/24 06:11:50;;;;;;;15.35;3.95;;;;;;;37.01;36.59;100598.50;2094189;28;20041;-78
2022/06/24 06:13:13;;;;;;;20.08;4.00;;;;;;;36.93;36.69;100593.75;2098750;28;20056;-79
2022/06/24 06:14:35;;;;;;;18.30;4.50;;;;;;;36.91;36.74;100600.41;2108543;28;20625;-79
2022/06/24 06:15:58;;;;;;;11.27;3.63;;;;;;;36.89;36.78;100605.22;2107677;28;20055;-77
2022/06/24 06:17:20;;;;;;;16.40;3.85;;;;;;;36.84;36.85;100600.13;2118696;27;20146;-78
2022/06/24 06:18:43;;;;;;;18.48;4.07;;;;;;;36.62;37.30;100605.97;2111229;28;20455;-80
2022/06/24 06:20:05;;;;;;;16.77;3.97;;;;;;;36.45;37.47;100601.19;2106586;28;20036;-79
2022/06/24 06:21:28;;;;;;;18.25;4.18;;;;;;;35.95;38.46;100609.56;2093275;28;20563;-76
2022/06/24 06:22:49;;;;;;;18.75;3.50;;;;;;;35.93;38.36;100612.44;2114633;27;20599;-79
2022/06/24 06:24:12;;;;;;;20.38;4.38;;;;;;;35.71;38.81;100609.94;2108094;28;20082;-79
2022/06/24 06:25:36;;;;;;;19.10;3.83;;;;;;;35.94;38.54;100610.56;2097506;28;20083;-77
2022/06/24 06:26:57;;;;;;;26.25;4.43;;;;;;;36.06;38.43;100614.03;2115425;27;20046;-76
2022/06/24 06:28:19;;;;;;;;;;;;;;;36.10;38.42;100610.88;2107545;28;20138;-77
2022/06/24 06:29:42;;;;;;;22.17;4.75;;;;;;;36.09;38.41;100609.16;2116511;27;19926;-77